createdAt,value
2022-12-08T00:00:24.678Z,11.47
2022-12-08T00:02:56.761Z,10.47
2022-12-08T00:05:44.232Z,11.13
2022-12-08T00:08:31.904Z,11.00
2022-12-08T00:10:58.787Z,10.17
2022-12-08T00:13:27.877Z,8.77
2022-12-08T00:16:05.806Z,11.07
2022-12-08T00:18:32.714Z,11.33
2022-12-08T00:21:02.405Z,8.87
2022-12-08T00:23:31.973Z,11.33
2022-12-08T00:26:03.870Z,12.73
2022-12-08T00:28:33.274Z,11.20
2022-12-08T00:31:07.430Z,10.10
2022-12-08T00:33:36.968Z,11.93
2022-12-08T00:36:09.870Z,11.83
2022-12-08T00:38:40.398Z,9.47
2022-12-08T00:41:40.200Z,14.23
2022-12-08T00:44:08.534Z,11.27
2022-12-08T00:46:35.942Z,11.13
2022-12-08T00:49:06.726Z,12.60
2022-12-08T00:51:34.801Z,10.77
2022-12-08T00:54:04.984Z,10.13
2022-12-08T00:56:33.193Z,9.47
2022-12-08T00:59:10.079Z,9.93
2022-12-08T01:01:39.698Z,17.60
2022-12-08T01:04:15.941Z,13.20
2022-12-08T01:06:44.748Z,11.43
2022-12-08T01:09:14.039Z,10.83
2022-12-08T01:11:47.127Z,15.10
2022-12-08T01:14:22.012Z,11.17
2022-12-08T01:16:51.716Z,12.27
2022-12-08T01:19:21.088Z,11.47
2022-12-08T01:21:48.250Z,12.17
2022-12-08T01:24:20.972Z,13.70
2022-12-08T01:26:50.058Z,15.53
2022-12-08T01:29:17.276Z,11.63
2022-12-08T01:31:46.884Z,12.70
2022-12-08T01:34:14.080Z,13.37
2022-12-08T01:36:44.415Z,11.00
2022-12-08T01:39:23.274Z,13.70
2022-12-08T01:41:54.706Z,12.13
2022-12-08T01:44:26.408Z,11.67
2022-12-08T01:46:56.502Z,12.37
2022-12-08T01:49:31.886Z,12.50
2022-12-08T01:52:28.942Z,13.07
2022-12-08T01:55:03.310Z,10.40
2022-12-08T01:57:42.521Z,13.00
2022-12-08T02:00:16.658Z,11.70
2022-12-08T02:03:01.682Z,11.33
2022-12-08T02:05:38.959Z,16.83
2022-12-08T02:08:10.456Z,12.63
2022-12-08T02:10:43.272Z,12.83
2022-12-08T02:13:17.715Z,12.30
2022-12-08T02:15:59.000Z,12.60
2022-12-08T02:19:29.832Z,14.17
2022-12-08T02:22:11.585Z,13.90
2022-12-08T02:25:21.490Z,13.77
2022-12-08T02:28:20.877Z,18.80
2022-12-08T02:31:19.595Z,16.00
2022-12-08T02:34:07.900Z,14.47
2022-12-08T02:37:16.610Z,13.00
2022-12-08T02:40:06.586Z,12.90
2022-12-08T02:43:00.482Z,15.60
2022-12-08T02:45:45.236Z,16.37
2022-12-08T02:48:15.470Z,13.50
2022-12-08T02:50:44.943Z,11.40
2022-12-08T02:56:10.742Z,16.97
2022-12-08T02:59:08.183Z,14.10
2022-12-08T03:01:58.104Z,14.47
2022-12-08T03:04:39.413Z,13.27
2022-12-08T03:07:14.622Z,14.87
2022-12-08T03:10:12.314Z,14.03
2022-12-08T03:13:10.573Z,15.50
2022-12-08T03:15:42.175Z,14.07
2022-12-08T03:18:15.152Z,16.80
2022-12-08T03:20:49.767Z,13.07
2022-12-08T03:23:21.937Z,14.87
2022-12-08T03:26:24.932Z,16.43
2022-12-08T03:28:54.292Z,17.40
2022-12-08T03:31:28.268Z,15.10
2022-12-08T03:34:02.402Z,14.87
2022-12-08T03:36:34.638Z,14.87
2022-12-08T03:39:01.989Z,18.53
2022-12-08T03:41:29.031Z,17.93
2022-12-08T03:44:00.818Z,14.53
2022-12-08T03:49:00.915Z,15.23
2022-12-08T03:51:30.968Z,17.17
2022-12-08T03:53:59.971Z,17.00
2022-12-08T03:56:30.687Z,18.00
2022-12-08T03:59:01.123Z,14.90
2022-12-08T04:01:30.332Z,15.93
2022-12-08T04:03:59.340Z,16.60
2022-12-08T04:06:29.222Z,16.70
2022-12-08T04:09:01.328Z,15.67
2022-12-08T04:11:28.435Z,14.97
2022-12-08T04:13:57.884Z,15.60
2022-12-08T04:16:31.895Z,19.10
2022-12-08T04:19:03.459Z,13.73
2022-12-08T04:21:35.220Z,15.03
2022-12-08T04:24:02.526Z,17.63
2022-12-08T04:26:32.558Z,18.73
2022-12-08T04:29:03.629Z,15.20
2022-12-08T04:31:30.702Z,15.10
2022-12-08T04:34:00.227Z,17.80
2022-12-08T04:36:27.093Z,16.40
2022-12-08T04:38:56.131Z,15.23
2022-12-08T04:41:23.211Z,16.80
2022-12-08T04:43:50.143Z,15.37
2022-12-08T04:46:21.704Z,16.47
2022-12-08T04:48:53.702Z,17.93
2022-12-08T04:51:21.209Z,15.77
2022-12-08T04:53:52.801Z,16.63
2022-12-08T04:56:20.009Z,16.10
2022-12-08T04:58:49.096Z,15.10
2022-12-08T05:01:20.807Z,14.07
2022-12-08T05:03:53.086Z,12.63
2022-12-08T05:06:19.915Z,13.80
2022-12-08T05:08:49.231Z,16.10
2022-12-08T05:11:16.093Z,14.67
2022-12-08T05:13:45.191Z,14.50
2022-12-08T05:16:16.105Z,14.43
2022-12-08T05:18:45.719Z,16.50
2022-12-08T05:21:12.918Z,16.33
2022-12-08T05:23:39.963Z,16.40
2022-12-08T05:26:11.224Z,15.27
2022-12-08T05:28:43.595Z,18.77
2022-12-08T05:31:15.952Z,13.90
2022-12-08T05:33:46.278Z,14.90
2022-12-08T05:36:20.954Z,16.40
2022-12-08T05:38:48.102Z,15.53
2022-12-08T05:41:23.421Z,14.03
2022-12-08T05:43:55.099Z,15.67
2022-12-08T05:46:22.501Z,13.53
2022-12-08T05:48:51.422Z,13.00
2022-12-08T05:51:22.796Z,13.53
2022-12-08T05:53:53.639Z,13.83
2022-12-08T05:56:25.665Z,16.00
2022-12-08T05:58:54.892Z,15.47
2022-12-08T06:01:31.510Z,16.00
2022-12-08T06:04:01.467Z,14.60
2022-12-08T06:06:29.821Z,13.93
2022-12-08T06:09:01.564Z,15.97
2022-12-08T06:11:32.492Z,12.67
2022-12-08T06:14:02.114Z,15.20
2022-12-08T06:16:36.214Z,13.37
2022-12-08T06:19:05.440Z,14.43
2022-12-08T06:21:32.265Z,14.00
2022-12-08T06:23:59.205Z,13.47
2022-12-08T06:26:26.390Z,14.40
2022-12-08T06:29:00.560Z,15.07
2022-12-08T06:31:28.082Z,12.87
2022-12-08T06:33:57.779Z,13.93
2022-12-08T06:36:28.060Z,15.17
2022-12-08T06:38:58.038Z,10.40
2022-12-08T06:41:27.366Z,16.43
2022-12-08T06:43:57.496Z,15.63
2022-12-08T06:46:24.554Z,15.37
2022-12-08T06:48:51.532Z,11.47
2022-12-08T06:51:22.866Z,14.67
2022-12-08T06:53:50.274Z,15.00
2022-12-08T06:56:20.370Z,16.77
2022-12-08T06:58:53.042Z,13.90
2022-12-08T07:01:22.722Z,13.20
2022-12-08T07:03:49.832Z,13.17
2022-12-08T07:06:25.429Z,15.23
2022-12-08T07:08:52.723Z,13.30
2022-12-08T07:11:22.026Z,13.87
2022-12-08T07:13:51.563Z,15.73
2022-12-08T07:16:20.619Z,12.37
2022-12-08T07:18:47.463Z,16.00
2022-12-08T07:21:18.836Z,14.53
2022-12-08T07:23:52.725Z,13.57
2022-12-08T07:26:24.954Z,15.70
2022-12-08T07:28:56.692Z,14.60
2022-12-08T07:31:26.161Z,15.10
2022-12-08T07:33:58.841Z,14.87
2022-12-08T07:36:28.192Z,13.53
2022-12-08T07:38:57.789Z,15.40
2022-12-08T07:41:27.324Z,12.23
2022-12-08T07:43:56.007Z,13.43
2022-12-08T07:46:27.959Z,15.93
2022-12-08T07:48:57.572Z,15.93
2022-12-08T07:51:26.552Z,13.87
2022-12-08T07:53:55.947Z,13.30
2022-12-08T07:56:23.683Z,13.57
2022-12-08T07:58:50.938Z,16.10
2022-12-08T08:01:27.222Z,12.73
2022-12-08T08:03:57.087Z,13.10
2022-12-08T08:06:24.590Z,13.47
2022-12-08T08:08:56.688Z,14.53
2022-12-08T08:11:26.501Z,12.70
2022-12-08T08:13:56.349Z,13.57
2022-12-08T08:16:36.546Z,13.50
2022-12-08T08:19:07.170Z,16.27
2022-12-08T08:21:45.642Z,15.93
2022-12-08T08:24:13.065Z,12.67
2022-12-08T08:26:39.839Z,15.43
2022-12-08T08:29:06.724Z,13.57
2022-12-08T08:31:35.928Z,14.70
2022-12-08T08:34:10.350Z,16.57
2022-12-08T08:36:39.784Z,13.03
2022-12-08T08:39:07.007Z,14.63
2022-12-08T08:41:35.327Z,13.20
2022-12-08T08:44:07.212Z,13.90
2022-12-08T08:46:36.943Z,13.33
2022-12-08T08:49:03.785Z,13.13
2022-12-08T08:51:33.894Z,11.93
2022-12-08T08:54:03.150Z,15.07
2022-12-08T08:56:30.274Z,13.23
2022-12-08T08:58:59.659Z,15.27
2022-12-08T09:01:29.382Z,14.70
2022-12-08T09:03:56.914Z,14.77
2022-12-08T09:06:25.267Z,13.63
2022-12-08T09:08:54.796Z,16.23
2022-12-08T09:11:24.419Z,13.17
2022-12-08T09:13:55.230Z,13.67
2022-12-08T09:16:25.791Z,12.97
2022-12-08T09:18:57.609Z,13.93
2022-12-08T09:21:27.203Z,15.07
2022-12-08T09:24:00.903Z,15.27
2022-12-08T09:26:30.765Z,14.37
2022-12-08T09:29:00.442Z,12.73
2022-12-08T09:31:34.824Z,13.73
2022-12-08T09:34:05.547Z,12.17
2022-12-08T09:36:34.921Z,11.90
2022-12-08T09:39:05.360Z,12.83
2022-12-08T09:41:48.387Z,13.70
2022-12-08T09:45:05.293Z,14.17
2022-12-08T09:48:06.986Z,12.77
2022-12-08T09:50:43.130Z,11.97
2022-12-08T09:53:18.017Z,11.03
2022-12-08T09:56:29.959Z,12.67
2022-12-08T09:59:22.848Z,12.17
2022-12-08T10:01:54.157Z,12.73
2022-12-08T10:04:32.616Z,13.90
2022-12-08T10:07:42.305Z,13.77
2022-12-08T10:10:42.039Z,12.17
2022-12-08T10:13:29.430Z,11.33
2022-12-08T10:16:17.041Z,11.17
2022-12-08T10:19:12.972Z,12.67
2022-12-08T10:21:55.602Z,12.17
2022-12-08T10:24:40.634Z,12.17
2022-12-08T10:27:18.127Z,13.90
2022-12-08T10:29:44.937Z,12.70
2022-12-08T10:32:24.577Z,13.93
2022-12-08T10:35:09.193Z,11.77
2022-12-08T10:37:39.172Z,12.67
2022-12-08T10:40:08.841Z,12.83
2022-12-08T10:42:48.400Z,10.17
2022-12-08T10:45:38.381Z,10.30
2022-12-08T10:48:28.020Z,11.17
2022-12-08T10:50:58.700Z,11.97
2022-12-08T10:53:31.637Z,13.80
2022-12-08T10:56:03.562Z,11.80
2022-12-08T10:58:47.837Z,10.03
2022-12-08T11:01:39.568Z,10.27
2022-12-08T11:04:21.820Z,8.53
2022-12-08T11:06:51.003Z,8.20
2022-12-08T11:09:19.933Z,10.73
2022-12-08T11:11:57.512Z,7.47
2022-12-08T11:14:32.649Z,10.87
2022-12-08T11:17:15.156Z,9.03
2022-12-08T11:19:52.333Z,9.03
2022-12-08T11:22:29.702Z,11.13
2022-12-08T11:25:26.877Z,8.20
2022-12-08T11:28:05.383Z,10.87
2022-12-08T11:30:41.154Z,9.90
2022-12-08T11:33:28.980Z,9.83
2022-12-08T11:36:16.979Z,8.77
2022-12-08T11:38:52.745Z,8.73
2022-12-08T11:41:30.113Z,8.80
2022-12-08T11:44:04.717Z,10.53
2022-12-08T11:46:53.309Z,10.27
2022-12-08T11:49:20.666Z,8.77
2022-12-08T11:52:22.730Z,10.10
2022-12-08T11:55:15.867Z,7.90
2022-12-08T11:57:45.479Z,7.80
2022-12-08T12:00:16.932Z,9.13
2022-12-08T12:02:59.518Z,10.97
2022-12-08T12:06:37.746Z,8.57
2022-12-08T12:09:32.029Z,10.37
2022-12-08T12:12:13.732Z,7.53
2022-12-08T12:15:28.381Z,7.93
2022-12-08T12:17:57.952Z,8.30
2022-12-08T12:20:38.049Z,10.47
2022-12-08T12:23:35.740Z,7.33
2022-12-08T12:26:09.632Z,7.13
2022-12-08T12:28:49.761Z,7.53
2022-12-08T12:31:28.750Z,8.90
2022-12-08T12:34:12.682Z,7.43
2022-12-08T12:37:05.491Z,7.17
2022-12-08T12:40:01.927Z,8.70
2022-12-08T12:42:56.685Z,8.77
2022-12-08T12:45:30.932Z,7.63
2022-12-08T12:48:00.085Z,8.93
2022-12-08T12:50:34.783Z,7.70
2022-12-08T12:53:20.802Z,7.93
2022-12-08T12:56:04.036Z,7.63
2022-12-08T12:58:30.920Z,8.50
2022-12-08T13:01:13.157Z,7.70
2022-12-08T13:04:05.807Z,8.10
2022-12-08T13:06:43.336Z,8.63
2022-12-08T13:09:29.153Z,7.47
2022-12-08T13:12:09.409Z,7.60
2022-12-08T13:14:46.835Z,6.77
2022-12-08T13:17:27.147Z,8.87
2022-12-08T13:20:04.254Z,6.60
2022-12-08T13:22:54.399Z,6.70
2022-12-08T13:25:39.781Z,7.43
2022-12-08T13:28:16.546Z,8.10
2022-12-08T13:30:50.850Z,6.43
2022-12-08T13:33:40.505Z,6.33
2022-12-08T13:36:40.023Z,6.17
2022-12-08T13:39:19.646Z,7.53
2022-12-08T13:42:00.518Z,6.33
2022-12-08T13:45:48.702Z,6.47
2022-12-08T13:49:09.648Z,6.07
2022-12-08T13:57:34.892Z,7.47
2022-12-08T14:00:16.257Z,5.83
2022-12-08T14:02:51.539Z,7.93
2022-12-08T14:05:41.108Z,7.13
2022-12-08T14:08:58.923Z,5.23
2022-12-08T14:11:35.034Z,6.53
2022-12-08T14:14:45.870Z,4.97
2022-12-08T14:17:20.989Z,5.27
2022-12-08T14:20:00.268Z,4.50
2022-12-08T14:22:36.604Z,5.00
2022-12-08T14:25:06.644Z,5.63
2022-12-08T14:27:37.634Z,5.73
2022-12-08T14:30:16.082Z,6.60
2022-12-08T14:33:00.899Z,4.60
2022-12-08T14:35:35.441Z,4.93
2022-12-08T14:38:09.660Z,5.50
2022-12-08T14:40:44.510Z,5.97
2022-12-08T14:43:13.437Z,5.90
2022-12-08T14:45:43.256Z,5.57
2022-12-08T14:48:38.582Z,5.10
2022-12-08T14:51:23.066Z,4.60
2022-12-08T14:54:18.653Z,5.53
2022-12-08T14:56:56.158Z,4.63
2022-12-08T14:59:36.346Z,5.43
2022-12-08T15:02:09.283Z,5.13
2022-12-08T15:04:40.694Z,6.60
2022-12-08T15:07:22.936Z,5.37
2022-12-08T15:10:15.608Z,5.00
2022-12-08T15:13:09.343Z,4.87
2022-12-08T15:16:25.924Z,6.33
2022-12-08T15:19:24.226Z,6.27
2022-12-08T15:21:58.918Z,5.37
2022-12-08T15:24:35.746Z,4.93
2022-12-08T15:27:04.187Z,5.47
2022-12-08T15:29:33.537Z,5.37
2022-12-08T15:32:01.718Z,5.30
2022-12-08T15:34:33.183Z,5.50
2022-12-08T15:37:04.375Z,6.97
2022-12-08T15:39:38.291Z,6.17
2022-12-08T15:42:14.992Z,4.60
2022-12-08T15:44:45.083Z,5.10
2022-12-08T15:47:25.948Z,5.20
2022-12-08T15:49:53.071Z,5.77
2022-12-08T15:52:24.801Z,6.07
2022-12-08T15:54:51.869Z,5.20
2022-12-08T15:58:24.847Z,5.60
2022-12-08T16:00:51.240Z,7.20
2022-12-08T16:09:33.956Z,5.43
2022-12-08T16:12:23.048Z,4.83
2022-12-08T16:17:40.639Z,5.17
2022-12-08T16:20:14.373Z,4.73
2022-12-08T16:22:56.431Z,5.87
2022-12-08T16:25:36.388Z,5.27
2022-12-08T16:28:45.327Z,7.53
2022-12-08T16:31:10.280Z,8.87
2022-12-08T16:33:40.906Z,9.50
2022-12-08T16:36:11.201Z,8.67
2022-12-08T16:38:38.047Z,10.03
2022-12-08T16:41:34.173Z,11.17
2022-12-08T16:44:05.671Z,9.60
2022-12-08T16:46:33.206Z,9.37
2022-12-08T16:49:08.779Z,9.10
2022-12-08T16:51:35.650Z,9.03
2022-12-08T16:54:04.998Z,10.07
2022-12-08T16:56:36.582Z,9.33
2022-12-08T16:59:05.682Z,11.73
2022-12-08T17:01:35.658Z,9.33
2022-12-08T17:06:52.960Z,9.93
2022-12-08T17:09:19.952Z,9.17
2022-12-08T17:11:51.477Z,9.33
2022-12-08T17:14:23.293Z,11.67
2022-12-08T17:16:52.442Z,9.87
2022-12-08T17:19:21.940Z,9.33
2022-12-08T17:21:49.066Z,10.30
2022-12-08T17:24:18.676Z,11.67
2022-12-08T17:26:51.622Z,10.40
2022-12-08T17:29:20.588Z,10.03
2022-12-08T17:31:51.067Z,10.17
2022-12-08T17:34:21.174Z,11.13
2022-12-08T17:36:49.253Z,11.40
2022-12-08T17:39:19.225Z,11.77
2022-12-08T17:41:49.025Z,9.47
2022-12-08T17:44:24.305Z,12.80
2022-12-08T17:46:53.294Z,9.67
2022-12-08T17:49:29.580Z,9.47
2022-12-08T17:52:02.955Z,12.17
2022-12-08T17:54:30.462Z,11.23
2022-12-08T17:56:59.948Z,11.30
2022-12-08T17:59:30.526Z,11.17
2022-12-08T18:02:02.653Z,11.57
2022-12-08T18:04:31.985Z,11.23
2022-12-08T18:07:01.077Z,10.03
2022-12-08T18:09:40.577Z,12.17
2022-12-08T18:12:09.476Z,10.87
2022-12-08T18:14:36.338Z,10.73
2022-12-08T18:17:03.517Z,11.00
2022-12-08T18:19:34.855Z,11.20
2022-12-08T18:22:01.851Z,10.40
2022-12-08T18:24:33.725Z,9.57
2022-12-08T18:27:00.823Z,9.80
2022-12-08T18:29:32.105Z,10.77
2022-12-08T18:32:04.789Z,11.23
2022-12-08T18:34:34.601Z,11.67
2022-12-08T18:37:04.264Z,10.67
2022-12-08T18:39:32.800Z,9.80
2022-12-08T18:42:22.588Z,12.93
2022-12-08T18:45:02.790Z,12.27
2022-12-08T18:47:37.315Z,11.97
2022-12-08T18:50:11.201Z,10.90
2022-12-08T18:52:38.441Z,11.20
2022-12-08T18:55:08.661Z,10.43
2022-12-08T18:57:43.640Z,9.70
2022-12-08T19:00:15.590Z,11.67
2022-12-08T19:02:43.118Z,9.60
2022-12-08T19:05:14.065Z,10.77
2022-12-08T19:07:46.529Z,11.53
2022-12-08T19:10:16.711Z,13.27
2022-12-08T19:12:49.081Z,12.40
2022-12-08T19:15:22.542Z,8.80
2022-12-08T19:17:53.688Z,9.93
2022-12-08T19:20:22.870Z,9.57
2022-12-08T19:22:54.388Z,10.63
2022-12-08T19:25:23.541Z,8.87
2022-12-08T19:27:50.525Z,9.20
2022-12-08T19:30:17.679Z,9.63
2022-12-08T19:32:47.246Z,11.53
2022-12-08T19:35:16.764Z,10.77
2022-12-08T19:37:45.860Z,10.93
2022-12-08T19:40:33.235Z,10.37
2022-12-08T19:43:18.565Z,9.53
2022-12-08T19:45:45.461Z,10.77
2022-12-08T19:48:13.925Z,10.53
2022-12-08T19:50:43.247Z,10.93
2022-12-08T19:53:17.167Z,10.33
2022-12-08T19:55:50.224Z,9.47
2022-12-08T19:58:19.276Z,8.77
2022-12-08T20:00:50.918Z,10.70
2022-12-08T20:03:21.842Z,9.63
2022-12-08T20:05:53.861Z,10.07
2022-12-08T20:08:23.400Z,12.27
2022-12-08T20:10:55.752Z,11.37
2022-12-08T20:13:45.451Z,9.53
2022-12-08T20:16:15.627Z,10.27
2022-12-08T20:18:44.043Z,10.60
2022-12-08T20:21:17.879Z,9.23
2022-12-08T20:23:46.203Z,9.87
2022-12-08T20:26:18.012Z,9.87
2022-12-08T20:28:47.711Z,10.97
2022-12-08T20:31:21.962Z,11.80
2022-12-08T20:33:52.126Z,9.83
2022-12-08T20:36:24.564Z,10.37
2022-12-08T20:38:54.233Z,9.87
2022-12-08T20:41:23.280Z,9.27
2022-12-08T20:43:55.436Z,8.83
2022-12-08T20:46:22.503Z,9.80
2022-12-08T20:48:51.689Z,9.33
2022-12-08T20:51:21.184Z,9.40
2022-12-08T20:53:48.171Z,8.90
2022-12-08T20:56:25.077Z,9.87
2022-12-08T20:58:56.222Z,12.27
2022-12-08T21:01:27.886Z,9.23
2022-12-08T21:03:57.692Z,12.67
2022-12-08T21:06:32.402Z,11.20
2022-12-08T21:08:59.528Z,8.43
2022-12-08T21:11:28.731Z,8.43
2022-12-08T21:13:56.131Z,12.70
2022-12-08T21:16:25.583Z,9.20
2022-12-08T21:18:55.000Z,9.93
2022-12-08T21:21:22.016Z,9.13
2022-12-08T21:23:49.279Z,8.83
2022-12-08T21:26:20.510Z,7.97
2022-12-08T21:28:48.007Z,8.40
2022-12-08T21:31:22.430Z,8.73
2022-12-08T21:33:49.652Z,10.73
2022-12-08T21:36:20.431Z,10.60
2022-12-08T21:38:50.936Z,11.70
2022-12-08T21:41:42.872Z,8.53
2022-12-08T21:44:20.116Z,9.50
2022-12-08T21:46:47.583Z,10.97
2022-12-08T21:49:19.616Z,10.00
2022-12-08T21:51:46.535Z,8.33
2022-12-08T21:54:19.181Z,10.93
2022-12-08T21:56:50.166Z,9.93
2022-12-08T21:59:20.796Z,8.63
2022-12-08T22:01:47.982Z,9.70
2022-12-08T22:04:18.998Z,11.03
2022-12-08T22:06:48.398Z,10.73
2022-12-08T22:09:15.906Z,11.90
2022-12-08T22:11:43.940Z,9.60
2022-12-08T22:14:15.612Z,11.50
2022-12-08T22:16:44.127Z,11.20
2022-12-08T22:19:12.057Z,9.97
2022-12-08T22:21:41.725Z,11.23
2022-12-08T22:24:10.836Z,12.73
2022-12-08T22:26:37.815Z,11.07
2022-12-08T22:29:07.658Z,9.27
2022-12-08T22:31:39.673Z,12.03
2022-12-08T22:34:08.789Z,10.40
2022-12-08T22:36:37.825Z,9.80
2022-12-08T22:39:04.928Z,10.20
2022-12-08T22:41:31.965Z,11.10
2022-12-08T22:44:01.329Z,9.33
2022-12-08T22:46:28.154Z,9.20
2022-12-08T22:48:57.557Z,10.03
2022-12-08T22:51:24.438Z,10.70
2022-12-08T22:53:54.044Z,13.03
2022-12-08T22:56:21.379Z,13.63
2022-12-08T22:58:56.128Z,10.80
2022-12-08T23:01:32.760Z,11.63
2022-12-08T23:04:04.179Z,11.17
2022-12-08T23:06:36.273Z,11.57
2022-12-08T23:09:03.518Z,12.67
2022-12-08T23:11:33.048Z,10.10
2022-12-08T23:14:00.599Z,11.90
2022-12-08T23:16:33.650Z,11.03
2022-12-08T23:19:03.307Z,11.90
2022-12-08T23:21:30.196Z,11.33
2022-12-08T23:24:00.478Z,10.00
2022-12-08T23:26:36.354Z,11.17
2022-12-08T23:29:04.495Z,12.47
2022-12-08T23:31:31.911Z,13.47
2022-12-08T23:34:00.385Z,13.20
2022-12-08T23:36:29.892Z,10.60
2022-12-08T23:39:01.929Z,12.73
2022-12-08T23:41:30.964Z,12.00
2022-12-08T23:44:01.061Z,12.17
2022-12-08T23:46:32.724Z,12.97
2022-12-08T23:49:01.899Z,14.87
2022-12-08T23:51:29.511Z,12.63
2022-12-08T23:54:03.533Z,12.50
2022-12-08T23:56:30.823Z,15.13
2022-12-08T23:58:58.061Z,14.30
